sensor_id;sensor_type;location;lat;lon;timestamp;P1;durP1;ratioP1;P2;durP2;ratioP2
31906;SDS011;18455;50.858;13.662;2023-11-22T00:03:39;21.07;;;13.33;;
31906;SDS011;18455;50.858;13.662;2023-11-22T00:08:39;18.97;;;12.90;;
31906;SDS011;18455;50.858;13.662;2023-11-22T00:13:39;21.97;;;13.73;;
31906;SDS011;18455;50.858;13.662;2023-11-22T00:18:40;16.00;;;11.20;;
31906;SDS011;18455;50.858;13.662;2023-11-22T00:23:40;16.13;;;10.20;;
31906;SDS011;18455;50.858;13.662;2023-11-22T00:28:41;15.83;;;10.60;;
31906;SDS011;18455;50.858;13.662;2023-11-22T00:33:41;15.38;;;10.10;;
31906;SDS011;18455;50.858;13.662;2023-11-22T00:38:41;18.67;;;11.17;;
31906;SDS011;18455;50.858;13.662;2023-11-22T00:43:42;16.73;;;11.97;;
31906;SDS011;18455;50.858;13.662;2023-11-22T00:48:42;18.53;;;11.63;;
31906;SDS011;18455;50.858;13.662;2023-11-22T00:53:43;19.67;;;12.90;;
31906;SDS011;18455;50.858;13.662;2023-11-22T00:58:43;21.73;;;13.60;;
31906;SDS011;18455;50.858;13.662;2023-11-22T01:03:43;23.37;;;14.90;;
31906;SDS011;18455;50.858;13.662;2023-11-22T01:08:44;32.13;;;17.87;;
31906;SDS011;18455;50.858;13.662;2023-11-22T01:13:44;41.50;;;18.80;;
31906;SDS011;18455;50.858;13.662;2023-11-22T01:18:44;31.57;;;17.90;;
31906;SDS011;18455;50.858;13.662;2023-11-22T01:23:46;33.00;;;19.37;;
31906;SDS011;18455;50.858;13.662;2023-11-22T01:28:46;53.47;;;19.80;;
31906;SDS011;18455;50.858;13.662;2023-11-22T01:33:47;47.43;;;19.93;;
31906;SDS011;18455;50.858;13.662;2023-11-22T01:38:48;38.33;;;18.33;;
31906;SDS011;18455;50.858;13.662;2023-11-22T01:43:49;33.83;;;18.13;;
31906;SDS011;18455;50.858;13.662;2023-11-22T01:48:50;35.40;;;19.27;;
31906;SDS011;18455;50.858;13.662;2023-11-22T01:53:52;34.23;;;18.57;;
31906;SDS011;18455;50.858;13.662;2023-11-22T01:58:56;42.40;;;21.33;;
31906;SDS011;18455;50.858;13.662;2023-11-22T02:03:57;43.30;;;22.23;;
31906;SDS011;18455;50.858;13.662;2023-11-22T02:08:57;53.60;;;22.33;;
31906;SDS011;18455;50.858;13.662;2023-11-22T02:13:57;50.00;;;23.43;;
31906;SDS011;18455;50.858;13.662;2023-11-22T02:18:58;57.67;;;23.97;;
31906;SDS011;18455;50.858;13.662;2023-11-22T02:23:58;111.30;;;25.87;;
31906;SDS011;18455;50.858;13.662;2023-11-22T02:28:58;84.55;;;26.60;;
31906;SDS011;18455;50.858;13.662;2023-11-22T02:33:59;58.27;;;24.10;;
31906;SDS011;18455;50.858;13.662;2023-11-22T02:38:59;56.63;;;25.67;;
31906;SDS011;18455;50.858;13.662;2023-11-22T02:44:01;76.90;;;25.40;;
31906;SDS011;18455;50.858;13.662;2023-11-22T02:49:01;62.97;;;26.57;;
31906;SDS011;18455;50.858;13.662;2023-11-22T02:54:01;59.33;;;26.08;;
31906;SDS011;18455;50.858;13.662;2023-11-22T02:59:02;64.17;;;27.87;;
31906;SDS011;18455;50.858;13.662;2023-11-22T03:04:02;74.30;;;27.10;;
31906;SDS011;18455;50.858;13.662;2023-11-22T03:09:04;56.50;;;26.23;;
31906;SDS011;18455;50.858;13.662;2023-11-22T03:14:04;112.85;;;27.75;;
31906;SDS011;18455;50.858;13.662;2023-11-22T03:19:05;84.63;;;25.90;;
31906;SDS011;18455;50.858;13.662;2023-11-22T03:24:09;63.60;;;28.20;;
31906;SDS011;18455;50.858;13.662;2023-11-22T03:29:10;70.50;;;26.73;;
31906;SDS011;18455;50.858;13.662;2023-11-22T03:34:10;62.67;;;27.13;;
31906;SDS011;18455;50.858;13.662;2023-11-22T03:39:11;57.40;;;25.83;;
31906;SDS011;18455;50.858;13.662;2023-11-22T03:44:11;76.43;;;26.57;;
31906;SDS011;18455;50.858;13.662;2023-11-22T03:49:11;74.13;;;26.53;;
31906;SDS011;18455;50.858;13.662;2023-11-22T03:54:12;56.10;;;25.80;;
31906;SDS011;18455;50.858;13.662;2023-11-22T03:59:12;59.07;;;25.53;;
31906;SDS011;18455;50.858;13.662;2023-11-22T04:04:13;62.53;;;26.87;;
31906;SDS011;18455;50.858;13.662;2023-11-22T04:09:13;59.17;;;26.92;;
31906;SDS011;18455;50.858;13.662;2023-11-22T04:14:13;56.97;;;25.60;;
31906;SDS011;18455;50.858;13.662;2023-11-22T04:19:13;60.93;;;26.20;;
31906;SDS011;18455;50.858;13.662;2023-11-22T04:24:14;65.30;;;25.70;;
31906;SDS011;18455;50.858;13.662;2023-11-22T04:29:14;62.93;;;27.27;;
31906;SDS011;18455;50.858;13.662;2023-11-22T04:34:14;55.92;;;27.45;;
31906;SDS011;18455;50.858;13.662;2023-11-22T04:39:14;59.17;;;27.90;;
31906;SDS011;18455;50.858;13.662;2023-11-22T04:44:15;60.70;;;27.23;;
31906;SDS011;18455;50.858;13.662;2023-11-22T04:49:15;61.67;;;27.00;;
31906;SDS011;18455;50.858;13.662;2023-11-22T04:54:15;66.53;;;27.27;;
31906;SDS011;18455;50.858;13.662;2023-11-22T04:59:16;58.97;;;26.23;;
31906;SDS011;18455;50.858;13.662;2023-11-22T05:04:17;63.30;;;26.40;;
31906;SDS011;18455;50.858;13.662;2023-11-22T05:09:18;56.57;;;25.63;;
31906;SDS011;18455;50.858;13.662;2023-11-22T05:14:19;57.23;;;25.47;;
31906;SDS011;18455;50.858;13.662;2023-11-22T05:19:19;59.73;;;26.17;;
31906;SDS011;18455;50.858;13.662;2023-11-22T05:24:19;72.13;;;25.17;;
31906;SDS011;18455;50.858;13.662;2023-11-22T05:29:19;60.63;;;23.73;;
31906;SDS011;18455;50.858;13.662;2023-11-22T05:34:20;61.17;;;26.87;;
31906;SDS011;18455;50.858;13.662;2023-11-22T05:39:20;50.90;;;23.77;;
31906;SDS011;18455;50.858;13.662;2023-11-22T05:44:22;54.03;;;24.57;;
31906;SDS011;18455;50.858;13.662;2023-11-22T05:49:22;60.17;;;27.43;;
31906;SDS011;18455;50.858;13.662;2023-11-22T05:54:22;62.97;;;26.57;;
31906;SDS011;18455;50.858;13.662;2023-11-22T05:59:23;56.70;;;25.33;;
31906;SDS011;18455;50.858;13.662;2023-11-22T06:04:24;53.07;;;26.13;;
31906;SDS011;18455;50.858;13.662;2023-11-22T06:09:24;52.33;;;25.43;;
31906;SDS011;18455;50.858;13.662;2023-11-22T06:14:24;55.03;;;25.00;;
31906;SDS011;18455;50.858;13.662;2023-11-22T06:19:24;50.23;;;24.77;;
31906;SDS011;18455;50.858;13.662;2023-11-22T06:24:25;46.57;;;23.63;;
31906;SDS011;18455;50.858;13.662;2023-11-22T06:29:26;50.77;;;25.67;;
31906;SDS011;18455;50.858;13.662;2023-11-22T06:34:26;48.40;;;23.50;;
31906;SDS011;18455;50.858;13.662;2023-11-22T06:39:26;48.13;;;22.20;;
31906;SDS011;18455;50.858;13.662;2023-11-22T06:44:27;57.97;;;24.63;;
31906;SDS011;18455;50.858;13.662;2023-11-22T06:49:27;55.97;;;24.23;;
31906;SDS011;18455;50.858;13.662;2023-11-22T06:54:28;53.90;;;23.77;;
31906;SDS011;18455;50.858;13.662;2023-11-22T06:59:28;55.10;;;25.03;;
31906;SDS011;18455;50.858;13.662;2023-11-22T07:04:29;54.03;;;26.93;;
31906;SDS011;18455;50.858;13.662;2023-11-22T07:09:29;67.13;;;26.83;;
31906;SDS011;18455;50.858;13.662;2023-11-22T07:14:29;68.13;;;26.50;;
31906;SDS011;18455;50.858;13.662;2023-11-22T07:19:29;58.73;;;26.83;;
31906;SDS011;18455;50.858;13.662;2023-11-22T07:24:30;59.07;;;26.50;;
31906;SDS011;18455;50.858;13.662;2023-11-22T07:29:34;63.20;;;27.87;;
31906;SDS011;18455;50.858;13.662;2023-11-22T07:34:34;62.43;;;29.40;;
31906;SDS011;18455;50.858;13.662;2023-11-22T07:39:35;62.53;;;27.97;;
31906;SDS011;18455;50.858;13.662;2023-11-22T07:44:35;61.63;;;27.70;;
31906;SDS011;18455;50.858;13.662;2023-11-22T07:49:40;48.27;;;24.43;;
31906;SDS011;18455;50.858;13.662;2023-11-22T07:54:42;53.33;;;25.27;;
31906;SDS011;18455;50.858;13.662;2023-11-22T07:59:42;42.97;;;22.10;;
31906;SDS011;18455;50.858;13.662;2023-11-22T08:04:42;48.07;;;23.47;;
31906;SDS011;18455;50.858;13.662;2023-11-22T08:09:44;48.40;;;22.73;;
31906;SDS011;18455;50.858;13.662;2023-11-22T08:14:45;49.83;;;24.30;;
31906;SDS011;18455;50.858;13.662;2023-11-22T08:19:45;44.27;;;22.97;;
31906;SDS011;18455;50.858;13.662;2023-11-22T08:24:48;55.43;;;26.67;;
31906;SDS011;18455;50.858;13.662;2023-11-22T08:29:48;46.35;;;22.90;;
31906;SDS011;18455;50.858;13.662;2023-11-22T08:34:49;44.73;;;23.03;;
31906;SDS011;18455;50.858;13.662;2023-11-22T08:39:49;39.93;;;20.97;;
31906;SDS011;18455;50.858;13.662;2023-11-22T08:44:50;44.13;;;21.40;;
31906;SDS011;18455;50.858;13.662;2023-11-22T08:49:50;44.10;;;21.67;;
31906;SDS011;18455;50.858;13.662;2023-11-22T08:54:50;46.20;;;22.17;;
31906;SDS011;18455;50.858;13.662;2023-11-22T08:59:51;46.90;;;21.47;;
31906;SDS011;18455;50.858;13.662;2023-11-22T09:04:52;38.30;;;20.57;;
31906;SDS011;18455;50.858;13.662;2023-11-22T09:09:52;43.70;;;22.50;;
31906;SDS011;18455;50.858;13.662;2023-11-22T09:14:52;39.95;;;21.42;;
31906;SDS011;18455;50.858;13.662;2023-11-22T09:19:53;37.83;;;19.87;;
31906;SDS011;18455;50.858;13.662;2023-11-22T09:24:56;41.57;;;18.47;;
31906;SDS011;18455;50.858;13.662;2023-11-22T09:29:56;35.63;;;18.95;;
31906;SDS011;18455;50.858;13.662;2023-11-22T09:34:56;39.77;;;20.83;;
31906;SDS011;18455;50.858;13.662;2023-11-22T09:39:58;51.10;;;32.03;;
31906;SDS011;18455;50.858;13.662;2023-11-22T09:44:58;36.30;;;20.80;;
31906;SDS011;18455;50.858;13.662;2023-11-22T09:49:58;31.27;;;17.57;;
31906;SDS011;18455;50.858;13.662;2023-11-22T09:55:02;33.50;;;18.93;;
31906;SDS011;18455;50.858;13.662;2023-11-22T10:00:02;32.30;;;17.80;;
31906;SDS011;18455;50.858;13.662;2023-11-22T10:05:09;33.40;;;17.53;;
31906;SDS011;18455;50.858;13.662;2023-11-22T10:10:09;30.47;;;17.30;;
31906;SDS011;18455;50.858;13.662;2023-11-22T10:15:14;35.90;;;18.90;;
31906;SDS011;18455;50.858;13.662;2023-11-22T10:20:16;34.23;;;18.63;;
31906;SDS011;18455;50.858;13.662;2023-11-22T10:25:16;30.53;;;17.13;;
31906;SDS011;18455;50.858;13.662;2023-11-22T10:30:18;38.13;;;17.23;;
31906;SDS011;18455;50.858;13.662;2023-11-22T10:35:19;34.60;;;17.87;;
31906;SDS011;18455;50.858;13.662;2023-11-22T10:40:22;31.73;;;18.10;;
31906;SDS011;18455;50.858;13.662;2023-11-22T10:45:22;26.85;;;14.68;;
31906;SDS011;18455;50.858;13.662;2023-11-22T10:50:23;22.90;;;13.57;;
31906;SDS011;18455;50.858;13.662;2023-11-22T10:55:26;27.33;;;14.50;;
31906;SDS011;18455;50.858;13.662;2023-11-22T11:00:26;30.20;;;15.07;;
31906;SDS011;18455;50.858;13.662;2023-11-22T11:05:29;29.73;;;14.87;;
31906;SDS011;18455;50.858;13.662;2023-11-22T11:10:30;31.60;;;15.23;;
31906;SDS011;18455;50.858;13.662;2023-11-22T11:15:31;29.07;;;16.33;;
31906;SDS011;18455;50.858;13.662;2023-11-22T11:20:32;32.23;;;16.27;;
31906;SDS011;18455;50.858;13.662;2023-11-22T11:25:32;28.30;;;16.10;;
31906;SDS011;18455;50.858;13.662;2023-11-22T11:30:46;30.53;;;16.73;;
31906;SDS011;18455;50.858;13.662;2023-11-22T11:35:48;24.80;;;14.73;;
31906;SDS011;18455;50.858;13.662;2023-11-22T11:40:49;28.70;;;16.03;;
31906;SDS011;18455;50.858;13.662;2023-11-22T11:45:50;30.33;;;15.00;;
31906;SDS011;18455;50.858;13.662;2023-11-22T11:50:52;30.43;;;15.13;;
31906;SDS011;18455;50.858;13.662;2023-11-22T11:55:53;30.53;;;16.00;;
31906;SDS011;18455;50.858;13.662;2023-11-22T12:00:54;30.87;;;15.57;;
31906;SDS011;18455;50.858;13.662;2023-11-22T12:05:54;33.87;;;15.27;;
31906;SDS011;18455;50.858;13.662;2023-11-22T12:10:55;32.50;;;16.07;;
31906;SDS011;18455;50.858;13.662;2023-11-22T12:15:56;24.90;;;14.50;;
31906;SDS011;18455;50.858;13.662;2023-11-22T12:20:57;25.70;;;14.53;;
31906;SDS011;18455;50.858;13.662;2023-11-22T12:25:58;25.50;;;13.67;;
31906;SDS011;18455;50.858;13.662;2023-11-22T12:31:11;26.50;;;14.53;;
31906;SDS011;18455;50.858;13.662;2023-11-22T12:36:11;25.07;;;14.33;;
31906;SDS011;18455;50.858;13.662;2023-11-22T12:41:16;25.27;;;14.33;;
31906;SDS011;18455;50.858;13.662;2023-11-22T12:46:17;23.97;;;13.20;;
31906;SDS011;18455;50.858;13.662;2023-11-22T12:51:18;23.90;;;14.40;;
31906;SDS011;18455;50.858;13.662;2023-11-22T12:56:22;23.47;;;13.17;;
31906;SDS011;18455;50.858;13.662;2023-11-22T13:01:22;28.60;;;14.27;;
31906;SDS011;18455;50.858;13.662;2023-11-22T13:06:24;26.97;;;13.47;;
31906;SDS011;18455;50.858;13.662;2023-11-22T13:11:26;22.97;;;13.07;;
31906;SDS011;18455;50.858;13.662;2023-11-22T13:16:26;30.63;;;12.73;;
31906;SDS011;18455;50.858;13.662;2023-11-22T13:21:27;23.42;;;13.27;;
31906;SDS011;18455;50.858;13.662;2023-11-22T13:26:27;23.03;;;12.10;;
31906;SDS011;18455;50.858;13.662;2023-11-22T13:31:27;23.73;;;12.47;;
31906;SDS011;18455;50.858;13.662;2023-11-22T13:36:27;27.30;;;15.60;;
31906;SDS011;18455;50.858;13.662;2023-11-22T13:41:27;23.40;;;14.40;;
31906;SDS011;18455;50.858;13.662;2023-11-22T13:46:28;27.15;;;13.40;;
31906;SDS011;18455;50.858;13.662;2023-11-22T13:51:28;22.13;;;13.97;;
31906;SDS011;18455;50.858;13.662;2023-11-22T13:56:28;23.88;;;14.27;;
31906;SDS011;18455;50.858;13.662;2023-11-22T14:01:29;24.43;;;16.07;;
31906;SDS011;18455;50.858;13.662;2023-11-22T14:06:29;23.90;;;13.07;;
31906;SDS011;18455;50.858;13.662;2023-11-22T14:11:29;27.53;;;14.73;;
31906;SDS011;18455;50.858;13.662;2023-11-22T14:16:35;23.37;;;14.27;;
31906;SDS011;18455;50.858;13.662;2023-11-22T14:21:38;24.50;;;14.53;;
31906;SDS011;18455;50.858;13.662;2023-11-22T14:26:38;22.70;;;13.77;;
31906;SDS011;18455;50.858;13.662;2023-11-22T14:31:39;29.43;;;13.57;;
31906;SDS011;18455;50.858;13.662;2023-11-22T14:36:39;27.73;;;14.60;;
31906;SDS011;18455;50.858;13.662;2023-11-22T14:41:39;24.77;;;14.15;;
31906;SDS011;18455;50.858;13.662;2023-11-22T14:46:40;27.07;;;15.77;;
31906;SDS011;18455;50.858;13.662;2023-11-22T14:51:40;25.73;;;13.97;;
31906;SDS011;18455;50.858;13.662;2023-11-22T14:56:40;32.67;;;17.38;;
31906;SDS011;18455;50.858;13.662;2023-11-22T15:01:41;26.57;;;15.47;;
31906;SDS011;18455;50.858;13.662;2023-11-22T15:06:42;34.50;;;18.80;;
31906;SDS011;18455;50.858;13.662;2023-11-22T15:11:44;40.00;;;20.77;;
31906;SDS011;18455;50.858;13.662;2023-11-22T15:16:45;31.93;;;16.97;;
31906;SDS011;18455;50.858;13.662;2023-11-22T15:21:45;31.97;;;16.70;;
31906;SDS011;18455;50.858;13.662;2023-11-22T15:26:45;31.03;;;16.87;;
31906;SDS011;18455;50.858;13.662;2023-11-22T15:31:46;29.23;;;15.90;;
31906;SDS011;18455;50.858;13.662;2023-11-22T15:36:46;36.47;;;18.10;;
31906;SDS011;18455;50.858;13.662;2023-11-22T15:41:46;31.30;;;17.17;;
31906;SDS011;18455;50.858;13.662;2023-11-22T15:46:46;35.30;;;17.03;;
31906;SDS011;18455;50.858;13.662;2023-11-22T15:51:47;34.23;;;17.90;;
31906;SDS011;18455;50.858;13.662;2023-11-22T15:56:48;30.63;;;16.17;;
31906;SDS011;18455;50.858;13.662;2023-11-22T16:01:48;25.63;;;14.20;;
31906;SDS011;18455;50.858;13.662;2023-11-22T16:06:48;23.43;;;14.00;;
31906;SDS011;18455;50.858;13.662;2023-11-22T16:11:50;26.67;;;16.10;;
31906;SDS011;18455;50.858;13.662;2023-11-22T16:16:51;29.97;;;15.70;;
31906;SDS011;18455;50.858;13.662;2023-11-22T16:21:51;25.20;;;13.03;;
31906;SDS011;18455;50.858;13.662;2023-11-22T16:26:51;27.70;;;15.47;;
31906;SDS011;18455;50.858;13.662;2023-11-22T16:31:52;27.23;;;14.57;;
31906;SDS011;18455;50.858;13.662;2023-11-22T16:36:52;25.40;;;14.10;;
31906;SDS011;18455;50.858;13.662;2023-11-22T16:41:52;29.67;;;15.57;;
31906;SDS011;18455;50.858;13.662;2023-11-22T16:46:53;27.67;;;15.27;;
31906;SDS011;18455;50.858;13.662;2023-11-22T16:51:53;32.70;;;16.37;;
31906;SDS011;18455;50.858;13.662;2023-11-22T16:56:53;23.10;;;11.30;;
31906;SDS011;18455;50.858;13.662;2023-11-22T17:01:53;24.77;;;14.60;;
31906;SDS011;18455;50.858;13.662;2023-11-22T17:06:54;47.27;;;25.30;;
31906;SDS011;18455;50.858;13.662;2023-11-22T17:11:55;37.10;;;19.37;;
31906;SDS011;18455;50.858;13.662;2023-11-22T17:16:57;30.97;;;15.60;;
31906;SDS011;18455;50.858;13.662;2023-11-22T17:21:58;42.33;;;19.27;;
31906;SDS011;18455;50.858;13.662;2023-11-22T17:26:58;30.70;;;17.47;;
31906;SDS011;18455;50.858;13.662;2023-11-22T17:31:58;29.10;;;15.87;;
31906;SDS011;18455;50.858;13.662;2023-11-22T17:36:58;31.27;;;16.83;;
31906;SDS011;18455;50.858;13.662;2023-11-22T17:41:59;36.37;;;17.93;;
31906;SDS011;18455;50.858;13.662;2023-11-22T17:46:59;34.53;;;18.83;;
31906;SDS011;18455;50.858;13.662;2023-11-22T17:51:59;35.50;;;18.33;;
31906;SDS011;18455;50.858;13.662;2023-11-22T17:57:00;35.43;;;18.37;;
31906;SDS011;18455;50.858;13.662;2023-11-22T18:02:00;34.50;;;19.30;;
31906;SDS011;18455;50.858;13.662;2023-11-22T18:07:01;36.70;;;19.37;;
31906;SDS011;18455;50.858;13.662;2023-11-22T18:12:01;30.63;;;18.67;;
31906;SDS011;18455;50.858;13.662;2023-11-22T18:17:02;32.50;;;18.47;;
31906;SDS011;18455;50.858;13.662;2023-11-22T18:22:03;34.43;;;18.33;;
31906;SDS011;18455;50.858;13.662;2023-11-22T18:27:03;36.23;;;18.10;;
31906;SDS011;18455;50.858;13.662;2023-11-22T18:32:03;36.47;;;19.23;;
31906;SDS011;18455;50.858;13.662;2023-11-22T18:37:04;38.70;;;18.63;;
31906;SDS011;18455;50.858;13.662;2023-11-22T18:42:04;36.47;;;19.17;;
31906;SDS011;18455;50.858;13.662;2023-11-22T18:47:05;38.83;;;21.13;;
31906;SDS011;18455;50.858;13.662;2023-11-22T18:52:05;38.50;;;18.57;;
31906;SDS011;18455;50.858;13.662;2023-11-22T18:57:05;37.67;;;19.90;;
31906;SDS011;18455;50.858;13.662;2023-11-22T19:02:06;39.50;;;21.30;;
31906;SDS011;18455;50.858;13.662;2023-11-22T19:07:07;37.53;;;20.90;;
31906;SDS011;18455;50.858;13.662;2023-11-22T19:12:08;40.93;;;21.77;;
31906;SDS011;18455;50.858;13.662;2023-11-22T19:17:09;43.53;;;22.13;;
31906;SDS011;18455;50.858;13.662;2023-11-22T19:22:09;37.97;;;19.85;;
31906;SDS011;18455;50.858;13.662;2023-11-22T19:27:09;43.43;;;22.03;;
31906;SDS011;18455;50.858;13.662;2023-11-22T19:32:10;35.30;;;18.77;;
31906;SDS011;18455;50.858;13.662;2023-11-22T19:37:10;47.47;;;23.67;;
31906;SDS011;18455;50.858;13.662;2023-11-22T19:42:11;38.93;;;19.40;;
31906;SDS011;18455;50.858;13.662;2023-11-22T19:47:11;52.47;;;27.03;;
31906;SDS011;18455;50.858;13.662;2023-11-22T19:52:11;43.23;;;18.37;;
31906;SDS011;18455;50.858;13.662;2023-11-22T19:57:11;52.87;;;25.13;;
31906;SDS011;18455;50.858;13.662;2023-11-22T20:02:12;48.17;;;24.40;;
31906;SDS011;18455;50.858;13.662;2023-11-22T20:07:12;40.93;;;21.60;;
31906;SDS011;18455;50.858;13.662;2023-11-22T20:12:12;34.40;;;17.30;;
31906;SDS011;18455;50.858;13.662;2023-11-22T20:17:12;37.53;;;20.93;;
31906;SDS011;18455;50.858;13.662;2023-11-22T20:22:13;36.80;;;18.90;;
31906;SDS011;18455;50.858;13.662;2023-11-22T20:27:13;39.27;;;19.17;;
31906;SDS011;18455;50.858;13.662;2023-11-22T20:32:13;27.87;;;15.03;;
31906;SDS011;18455;50.858;13.662;2023-11-22T20:37:13;30.80;;;17.23;;
31906;SDS011;18455;50.858;13.662;2023-11-22T20:42:13;34.73;;;17.57;;
31906;SDS011;18455;50.858;13.662;2023-11-22T20:47:14;27.98;;;14.68;;
31906;SDS011;18455;50.858;13.662;2023-11-22T20:52:14;28.57;;;12.57;;
31906;SDS011;18455;50.858;13.662;2023-11-22T20:57:15;26.23;;;15.20;;
31906;SDS011;18455;50.858;13.662;2023-11-22T21:02:15;18.20;;;10.20;;
31906;SDS011;18455;50.858;13.662;2023-11-22T21:07:16;21.73;;;12.43;;
31906;SDS011;18455;50.858;13.662;2023-11-22T21:12:17;21.73;;;12.20;;
31906;SDS011;18455;50.858;13.662;2023-11-22T21:17:17;21.87;;;12.83;;
31906;SDS011;18455;50.858;13.662;2023-11-22T21:22:18;14.53;;;8.33;;
31906;SDS011;18455;50.858;13.662;2023-11-22T21:27:18;17.63;;;10.52;;
31906;SDS011;18455;50.858;13.662;2023-11-22T21:32:18;22.17;;;11.90;;
31906;SDS011;18455;50.858;13.662;2023-11-22T21:37:18;19.43;;;11.73;;
31906;SDS011;18455;50.858;13.662;2023-11-22T21:42:18;19.30;;;10.93;;
31906;SDS011;18455;50.858;13.662;2023-11-22T21:47:19;17.47;;;9.43;;
31906;SDS011;18455;50.858;13.662;2023-11-22T21:52:19;19.13;;;11.17;;
31906;SDS011;18455;50.858;13.662;2023-11-22T21:57:19;16.47;;;9.97;;
31906;SDS011;18455;50.858;13.662;2023-11-22T22:02:20;21.23;;;11.07;;
31906;SDS011;18455;50.858;13.662;2023-11-22T22:07:20;15.27;;;10.10;;
31906;SDS011;18455;50.858;13.662;2023-11-22T22:12:20;16.10;;;9.63;;
31906;SDS011;18455;50.858;13.662;2023-11-22T22:17:21;15.30;;;9.70;;
31906;SDS011;18455;50.858;13.662;2023-11-22T22:22:21;15.57;;;9.53;;
31906;SDS011;18455;50.858;13.662;2023-11-22T22:27:21;13.30;;;7.70;;
31906;SDS011;18455;50.858;13.662;2023-11-22T22:32:21;12.17;;;7.27;;
31906;SDS011;18455;50.858;13.662;2023-11-22T22:37:22;17.70;;;8.30;;
31906;SDS011;18455;50.858;13.662;2023-11-22T22:42:23;12.00;;;7.17;;
31906;SDS011;18455;50.858;13.662;2023-11-22T22:47:23;13.63;;;8.20;;
31906;SDS011;18455;50.858;13.662;2023-11-22T22:52:23;11.50;;;7.13;;
31906;SDS011;18455;50.858;13.662;2023-11-22T22:57:23;11.13;;;6.80;;
31906;SDS011;18455;50.858;13.662;2023-11-22T23:02:24;10.48;;;6.97;;
31906;SDS011;18455;50.858;13.662;2023-11-22T23:07:24;10.43;;;6.13;;
31906;SDS011;18455;50.858;13.662;2023-11-22T23:12:25;11.13;;;6.87;;
31906;SDS011;18455;50.858;13.662;2023-11-22T23:17:26;6.53;;;4.53;;
31906;SDS011;18455;50.858;13.662;2023-11-22T23:22:26;8.53;;;5.17;;
31906;SDS011;18455;50.858;13.662;2023-11-22T23:27:26;7.60;;;5.23;;
31906;SDS011;18455;50.858;13.662;2023-11-22T23:32:26;9.70;;;5.90;;
31906;SDS011;18455;50.858;13.662;2023-11-22T23:37:27;5.53;;;4.20;;
31906;SDS011;18455;50.858;13.662;2023-11-22T23:42:27;5.63;;;4.30;;
31906;SDS011;18455;50.858;13.662;2023-11-22T23:47:27;7.97;;;5.70;;
31906;SDS011;18455;50.858;13.662;2023-11-22T23:52:28;12.13;;;5.30;;
31906;SDS011;18455;50.858;13.662;2023-11-22T23:57:28;6.97;;;5.53;;
